This is the latest recevied weather packets stored in our database for station/object EA1L-13. If no packets are shown the sender has not sent any weather packets the latest 10 day(s).
| Time | Temp. | Humidity | Pressure | Rain* | Wind** | Luminosity | Snow |
|---|---|---|---|---|---|---|---|
| 1778008505 | 10.56° C | 99% | 1013.1 hPa | 0 mm | - | - | - |
| 1778007605 | 11.11° C | 99% | 1013.2 hPa | 0 mm | - | - | - |
| 1778006705 | 11.11° C | 98% | 1013 hPa | 0 mm | - | - | - |
| 1778005805 | 11.11° C | 97% | 1013 hPa | 0 mm | - | - | - |
| 1778004904 | 10.56° C | 96% | 1012.9 hPa | 0 mm | - | - | - |
| 1778004025 | 11.11° C | 95% | 1012.7 hPa | 0 mm | - | - | - |
| 1778003104 | 11.11° C | 96% | 1012.7 hPa | 0 mm | - | - | - |
| 1778002205 | 11.11° C | 97% | 1012.7 hPa | 0.25 mm | - | - | - |
| 1778001304 | 11.11° C | 100% | 1012.7 hPa | 0.25 mm | - | - | - |
| 1778000404 | 11.11° C | 100% | 1012.7 hPa | 0.25 mm | - | - | - |
| 1777999505 | 11.11° C | 100% | 1012.6 hPa | 0.25 mm | - | - | - |
| 1777998605 | 11.11° C | 100% | 1012.6 hPa | 0 mm | - | - | - |
| 1777997704 | 11.11° C | 100% | 1012.6 hPa | 0.25 mm | - | - | - |
| 1777996804 | 11.11° C | 98% | 1012.5 hPa | 0.25 mm | - | - | - |
| 1777995905 | 11.67° C | 98% | 1012.5 hPa | 0.25 mm | - | - | - |
| 1777995005 | 11.11° C | 96% | 1012.4 hPa | 1.78 mm | - | - | - |
| 1777994104 | 11.67° C | 96% | 1012.4 hPa | 1.52 mm | - | - | - |
| 1777993205 | 10° C | 93% | 1012.5 hPa | 1.52 mm | - | - | - |
| 1777992305 | 10.56° C | 89% | 1012.4 hPa | 2.79 mm | - | - | - |
| 1777991405 | 12.22° C | 89% | 1012.3 hPa | 1.27 mm | - | - | - |
| 1777990504 | 11.67° C | 84% | 1012.3 hPa | 1.52 mm | - | - | - |
| 1777989604 | 11.67° C | 80% | 1012.2 hPa | 1.52 mm | - | - | - |
| 1777988704 | 13.33° C | 75% | 1012 hPa | 0.25 mm | - | - | - |
| 1777987804 | 13.33° C | 81% | 1011.9 hPa | 0.25 mm | - | - | - |
| 1777986904 | 12.78° C | 84% | 1012.1 hPa | 0 mm | - | - | - |
* Rain latest hour (hover to see other rain measurements)
** Current wind speed in m/s (hover to see current wind gust speed)